createdAt,value
2022-12-14T00:00:22.206Z,10.08
2022-12-14T00:01:31.928Z,11.80
2022-12-14T00:02:40.966Z,10.50
2022-12-14T00:03:50.887Z,10.70
2022-12-14T00:05:00.263Z,10.07
2022-12-14T00:06:16.120Z,11.38
2022-12-14T00:07:25.196Z,11.05
2022-12-14T00:08:38.284Z,10.28
2022-12-14T00:09:47.988Z,10.30
2022-12-14T00:10:59.189Z,10.88
2022-12-14T00:12:09.333Z,11.52
2022-12-14T00:13:18.555Z,10.95
2022-12-14T00:14:27.467Z,11.30
2022-12-14T00:15:38.061Z,11.30
2022-12-14T00:16:48.545Z,11.18
2022-12-14T00:17:57.490Z,10.92
2022-12-14T00:19:07.824Z,10.60
2022-12-14T00:20:17.951Z,11.35
2022-12-14T00:21:28.489Z,10.73
2022-12-14T00:22:37.554Z,10.80
2022-12-14T00:23:47.709Z,11.27
2022-12-14T00:24:56.993Z,11.85
2022-12-14T00:27:31.699Z,11.93
2022-12-14T00:28:43.663Z,11.22
2022-12-14T00:29:53.266Z,11.65
2022-12-14T00:31:01.828Z,11.98
2022-12-14T00:32:11.609Z,12.02
2022-12-14T00:33:21.255Z,11.45
2022-12-14T00:35:47.051Z,11.50
2022-12-14T00:36:56.521Z,11.37
2022-12-14T00:38:05.030Z,11.20
2022-12-14T00:39:14.929Z,10.78
2022-12-14T00:40:25.696Z,10.95
2022-12-14T00:41:35.608Z,11.13
2022-12-14T00:42:45.084Z,11.75
2022-12-14T00:43:53.839Z,11.65
2022-12-14T00:45:04.701Z,11.70
2022-12-14T00:46:13.894Z,11.12
2022-12-14T00:47:24.042Z,11.00
2022-12-14T00:48:34.486Z,11.18
2022-12-14T00:49:43.938Z,9.50
2022-12-14T00:50:54.186Z,11.67
2022-12-14T00:52:03.201Z,11.15
2022-12-14T00:53:11.845Z,12.75
2022-12-14T00:55:43.632Z,11.63
2022-12-14T00:56:52.475Z,11.87
2022-12-14T00:58:00.980Z,11.73
2022-12-14T00:59:10.106Z,12.37
2022-12-14T01:00:18.815Z,12.05
2022-12-14T01:01:30.894Z,11.77
2022-12-14T01:02:40.674Z,11.56
2022-12-14T01:03:50.674Z,11.60
2022-12-14T01:04:59.730Z,11.18
2022-12-14T01:06:17.321Z,11.52
2022-12-14T01:07:25.919Z,12.08
2022-12-14T01:08:37.811Z,12.52
2022-12-14T01:09:46.762Z,12.28
2022-12-14T01:10:57.277Z,12.03
2022-12-14T01:12:08.138Z,11.70
2022-12-14T01:14:27.619Z,10.98
2022-12-14T01:15:37.776Z,11.40
2022-12-14T01:16:47.870Z,10.65
2022-12-14T01:17:56.843Z,11.78
2022-12-14T01:19:07.621Z,11.55
2022-12-14T01:20:18.173Z,11.50
2022-12-14T01:21:28.290Z,11.07
2022-12-14T01:22:38.353Z,11.38
2022-12-14T01:25:06.791Z,12.03
2022-12-14T01:26:18.062Z,12.00
2022-12-14T01:27:26.905Z,11.65
2022-12-14T01:28:35.835Z,10.68
2022-12-14T01:29:44.438Z,11.47
2022-12-14T01:30:54.212Z,11.95
2022-12-14T01:32:03.243Z,10.87
2022-12-14T01:33:12.394Z,10.85
2022-12-14T01:34:22.131Z,11.20
2022-12-14T01:36:48.940Z,10.83
2022-12-14T01:37:57.474Z,12.02
2022-12-14T01:39:10.287Z,11.62
2022-12-14T01:40:19.310Z,10.90
2022-12-14T01:42:47.240Z,11.12
2022-12-14T01:44:02.448Z,11.72
2022-12-14T01:48:10.232Z,11.40
2022-12-14T01:49:23.454Z,10.90
2022-12-14T01:50:37.201Z,11.33
2022-12-14T01:54:34.745Z,10.85
2022-12-14T01:55:50.991Z,11.67
2022-12-14T01:57:04.117Z,10.52
2022-12-14T04:54:09.070Z,9.07
2022-12-14T04:55:28.337Z,8.88
2022-12-14T04:56:41.677Z,9.50
2022-12-14T04:59:13.808Z,9.47
2022-12-14T05:00:23.991Z,9.35
2022-12-14T05:02:12.286Z,8.93
2022-12-14T05:04:56.910Z,9.52
2022-12-14T05:06:29.025Z,9.18
2022-12-14T05:10:48.791Z,9.52
2022-12-14T05:13:46.276Z,10.63
2022-12-14T05:15:12.691Z,11.63
2022-12-14T05:16:24.262Z,11.30
2022-12-14T05:17:39.409Z,11.30
2022-12-14T05:18:50.540Z,12.13
2022-12-14T05:19:59.583Z,12.13
2022-12-14T05:21:09.405Z,11.23
2022-12-14T05:22:18.637Z,10.88
2022-12-14T05:23:29.103Z,11.28
2022-12-14T05:24:38.505Z,10.78
2022-12-14T05:25:49.104Z,10.12
2022-12-14T05:28:10.614Z,10.20
2022-12-14T05:29:20.410Z,10.83
2022-12-14T05:30:30.989Z,10.27
2022-12-14T05:31:40.131Z,14.35
2022-12-14T05:32:50.184Z,10.97
2022-12-14T05:33:58.887Z,11.25
2022-12-14T05:36:25.676Z,12.05
2022-12-14T05:38:49.548Z,13.83
2022-12-14T05:39:58.813Z,13.42
2022-12-14T05:41:08.510Z,12.58
2022-12-14T05:42:17.127Z,11.93
2022-12-14T05:43:26.510Z,12.92
2022-12-14T05:44:35.356Z,13.48
2022-12-14T05:45:44.442Z,13.63
2022-12-14T05:46:53.550Z,13.80
2022-12-14T05:48:03.173Z,14.75
2022-12-14T05:50:27.281Z,12.15
2022-12-14T05:51:35.798Z,13.55
2022-12-14T05:52:44.841Z,13.50
2022-12-14T05:53:54.945Z,13.88
2022-12-14T05:55:05.177Z,12.67
2022-12-14T05:56:15.857Z,12.32
2022-12-14T05:57:25.400Z,11.95
2022-12-14T05:58:35.561Z,12.07
2022-12-14T05:59:44.599Z,13.42
2022-12-14T06:00:54.325Z,13.60
2022-12-14T06:02:03.481Z,12.78
2022-12-14T06:03:13.595Z,13.63
2022-12-14T06:04:23.490Z,12.72
2022-12-14T06:05:32.437Z,13.03
2022-12-14T06:06:42.168Z,13.02
2022-12-14T06:07:51.432Z,14.02
2022-12-14T06:09:01.037Z,13.43
2022-12-14T06:10:09.594Z,13.40
2022-12-14T06:11:21.711Z,13.12
2022-12-14T06:12:30.750Z,13.64
2022-12-14T06:13:40.709Z,14.15
2022-12-14T06:14:49.352Z,17.37
2022-12-14T06:17:31.627Z,14.38
2022-12-14T06:18:42.737Z,13.42
2022-12-14T06:19:51.354Z,12.75
2022-12-14T06:21:00.599Z,14.18
2022-12-14T06:22:09.430Z,13.77
2022-12-14T06:23:18.004Z,15.23
2022-12-14T06:24:27.656Z,16.45
2022-12-14T06:25:36.636Z,18.20
2022-12-14T06:26:46.678Z,16.75
2022-12-14T06:29:15.211Z,15.70
2022-12-14T06:31:39.595Z,14.90
2022-12-14T06:32:49.203Z,16.82
2022-12-14T06:34:00.622Z,13.52
2022-12-14T06:35:09.628Z,13.65
2022-12-14T06:36:28.168Z,14.82
2022-12-14T06:37:36.832Z,13.52
2022-12-14T06:38:45.878Z,14.53
2022-12-14T06:39:54.760Z,14.78
2022-12-14T06:41:07.937Z,15.07
2022-12-14T06:42:16.498Z,14.78
2022-12-14T06:43:27.128Z,13.67
2022-12-14T06:44:37.198Z,14.13
2022-12-14T06:45:46.599Z,13.17
2022-12-14T06:46:56.394Z,12.77
2022-12-14T06:49:21.905Z,13.17
2022-12-14T06:50:31.651Z,13.77
2022-12-14T06:51:41.362Z,13.88
2022-12-14T06:52:51.436Z,15.12
2022-12-14T06:54:00.088Z,12.52
2022-12-14T06:55:10.165Z,13.20
2022-12-14T06:56:21.111Z,12.60
2022-12-14T06:57:29.670Z,15.67
2022-12-14T06:58:39.098Z,15.70
2022-12-14T06:59:48.229Z,15.85
2022-12-14T07:02:20.471Z,15.30
2022-12-14T07:03:31.639Z,14.88
2022-12-14T07:04:41.594Z,15.23
2022-12-14T07:05:53.916Z,13.80
2022-12-14T07:07:03.003Z,13.32
2022-12-14T07:08:11.653Z,15.20
2022-12-14T07:09:20.570Z,15.80
2022-12-14T07:10:30.533Z,14.65
2022-12-14T07:11:39.474Z,16.37
2022-12-14T07:12:48.399Z,17.95
2022-12-14T07:15:21.107Z,18.35
2022-12-14T07:16:29.928Z,16.82
2022-12-14T07:17:38.968Z,16.57
2022-12-14T07:18:48.693Z,16.32
2022-12-14T07:19:58.404Z,16.05
2022-12-14T07:21:09.732Z,15.77
2022-12-14T07:22:19.392Z,15.10
2022-12-14T07:23:31.057Z,15.18
2022-12-14T07:26:14.863Z,17.18
2022-12-14T07:27:25.414Z,17.50
2022-12-14T07:28:36.506Z,16.70
2022-12-14T07:31:24.653Z,16.05
2022-12-14T07:33:49.268Z,17.00
2022-12-14T07:34:58.917Z,16.30
2022-12-14T07:36:13.474Z,15.65
2022-12-14T07:37:22.582Z,16.53
2022-12-14T07:38:32.917Z,15.92
2022-12-14T07:39:42.103Z,16.55
2022-12-14T07:42:06.770Z,16.38
2022-12-14T07:44:30.226Z,16.70
2022-12-14T07:45:38.808Z,17.32
2022-12-14T07:46:49.401Z,15.20
2022-12-14T07:47:58.115Z,14.62
2022-12-14T07:49:07.335Z,14.20
2022-12-14T07:50:17.726Z,15.20
2022-12-14T07:52:45.249Z,16.08
2022-12-14T07:55:09.565Z,17.25
2022-12-14T07:56:22.634Z,17.18
2022-12-14T07:57:31.697Z,16.15
2022-12-14T07:58:41.544Z,16.47
2022-12-14T07:59:55.689Z,16.10
2022-12-14T08:01:14.036Z,16.82
2022-12-14T08:03:39.821Z,16.03
2022-12-14T08:04:49.007Z,16.20
2022-12-14T08:05:58.460Z,15.95
2022-12-14T08:07:07.401Z,16.77
2022-12-14T08:08:17.646Z,16.20
2022-12-14T08:09:26.331Z,17.65
2022-12-14T08:10:40.127Z,17.90
2022-12-14T08:11:52.895Z,19.30
2022-12-14T08:13:03.261Z,22.64
2022-12-14T08:15:36.535Z,20.27
2022-12-14T08:16:47.654Z,21.97
2022-12-14T08:17:56.487Z,21.15
2022-12-14T08:20:21.635Z,18.30
2022-12-14T08:21:30.806Z,16.20
2022-12-14T08:22:40.686Z,16.15
2022-12-14T08:23:53.009Z,16.07
2022-12-14T08:25:02.617Z,15.80
2022-12-14T08:26:12.663Z,16.58
2022-12-14T08:28:36.653Z,15.52
2022-12-14T08:29:45.206Z,16.48
2022-12-14T08:30:55.369Z,15.85
2022-12-14T08:32:06.702Z,16.75
2022-12-14T08:33:15.536Z,16.88
2022-12-14T08:34:24.311Z,20.88
2022-12-14T08:35:34.614Z,18.38
2022-12-14T08:36:44.756Z,17.75
2022-12-14T08:37:53.510Z,16.55
2022-12-14T08:39:09.031Z,15.95
2022-12-14T08:40:17.851Z,16.65
2022-12-14T08:41:28.047Z,17.08
2022-12-14T08:42:37.016Z,24.40
2022-12-14T08:43:53.019Z,20.40
2022-12-14T08:45:01.708Z,18.33
2022-12-14T08:46:10.940Z,18.97
2022-12-14T08:47:20.766Z,20.20
2022-12-14T08:48:30.611Z,17.87
2022-12-14T08:49:41.009Z,17.26
2022-12-14T08:50:50.233Z,17.25
2022-12-14T08:51:59.051Z,18.23
2022-12-14T08:53:07.971Z,18.67
2022-12-14T08:55:53.047Z,17.82
2022-12-14T08:57:04.505Z,16.85
2022-12-14T08:58:13.578Z,17.50
2022-12-14T08:59:52.282Z,18.10
2022-12-14T09:00:33.558Z,16.42
2022-12-14T09:01:42.740Z,16.07
2022-12-14T09:02:52.053Z,15.65
2022-12-14T09:04:05.375Z,15.92
2022-12-14T09:05:14.205Z,15.15
2022-12-14T09:06:28.723Z,15.88
2022-12-14T09:07:37.661Z,15.08
2022-12-14T09:08:47.221Z,15.50
2022-12-14T09:11:12.024Z,14.13
2022-12-14T09:12:20.667Z,15.43
2022-12-14T09:13:30.237Z,17.32
2022-12-14T09:14:40.613Z,15.28
2022-12-14T09:17:21.943Z,14.85
2022-12-14T09:18:32.425Z,14.67
2022-12-14T09:19:41.610Z,15.73
2022-12-14T09:20:53.665Z,16.65
2022-12-14T09:22:02.442Z,15.52
2022-12-14T09:23:11.313Z,15.58
2022-12-14T09:24:20.275Z,17.25
2022-12-14T09:25:29.056Z,15.60
2022-12-14T09:26:38.115Z,15.60
2022-12-14T09:27:48.245Z,15.75
2022-12-14T09:30:15.770Z,16.90
2022-12-14T09:31:27.051Z,17.15
2022-12-14T09:32:35.633Z,17.57
2022-12-14T09:33:44.381Z,17.22
2022-12-14T09:34:52.888Z,17.13
2022-12-14T09:36:10.767Z,17.85
2022-12-14T09:37:19.284Z,16.73
2022-12-14T09:38:30.400Z,17.65
2022-12-14T09:39:39.119Z,17.48
2022-12-14T09:40:52.193Z,17.10
2022-12-14T09:42:04.894Z,15.10
2022-12-14T09:44:45.227Z,15.05
2022-12-14T09:45:58.698Z,16.15
2022-12-14T09:48:37.514Z,17.78
2022-12-14T09:51:22.026Z,17.00
2022-12-14T09:54:02.092Z,16.88
2022-12-14T09:55:27.438Z,15.27
2022-12-14T09:57:50.858Z,15.17
2022-12-14T09:59:02.415Z,14.20
2022-12-14T10:03:21.489Z,15.93
2022-12-14T10:04:38.600Z,14.60
2022-12-14T10:05:58.792Z,15.53
2022-12-14T10:08:54.417Z,14.12
2022-12-14T10:11:46.163Z,11.82
2022-12-14T10:15:09.248Z,11.18
2022-12-14T10:17:55.624Z,12.07
2022-12-14T10:19:36.004Z,11.96
2022-12-14T10:20:52.785Z,11.35
2022-12-14T10:22:15.161Z,11.22
2022-12-14T10:23:26.107Z,11.92
2022-12-14T10:24:38.870Z,11.58
2022-12-14T10:25:52.094Z,12.20
2022-12-14T10:27:02.963Z,39.90
2022-12-14T10:29:39.654Z,16.07
2022-12-14T10:30:53.530Z,13.35
2022-12-14T10:33:53.563Z,14.75
2022-12-14T15:10:37.012Z,26.22
2022-12-14T15:11:51.992Z,26.07
2022-12-14T15:13:07.673Z,24.33
2022-12-14T15:14:48.288Z,23.10
2022-12-14T15:15:55.587Z,20.32
2022-12-14T15:17:22.095Z,21.27
2022-12-14T15:18:31.990Z,19.23
2022-12-14T15:19:58.637Z,16.83
2022-12-14T15:21:15.878Z,18.12
2022-12-14T15:23:53.317Z,21.10
2022-12-14T15:26:24.435Z,21.70
2022-12-14T15:27:36.683Z,20.02
2022-12-14T15:28:50.535Z,20.23
2022-12-14T15:31:39.748Z,21.32
2022-12-14T15:34:17.033Z,19.35
2022-12-14T15:36:45.624Z,19.15
2022-12-14T15:39:07.100Z,21.30
2022-12-14T15:41:35.961Z,19.37
2022-12-14T15:42:55.539Z,21.33
2022-12-14T15:45:32.734Z,22.18
2022-12-14T15:46:42.163Z,21.07
2022-12-14T15:47:51.109Z,21.00
2022-12-14T15:50:26.972Z,20.02
2022-12-14T15:51:39.923Z,19.83
2022-12-14T15:52:52.230Z,20.53
2022-12-14T15:54:04.339Z,20.78
2022-12-14T15:55:35.505Z,21.90
2022-12-14T15:58:16.406Z,23.33
2022-12-14T15:59:34.227Z,22.00
2022-12-14T16:02:26.845Z,22.00
2022-12-14T16:03:40.392Z,22.00
2022-12-14T16:04:50.482Z,20.85
2022-12-14T16:06:00.508Z,20.27
2022-12-14T16:07:25.466Z,16.42
2022-12-14T16:08:38.728Z,20.30
2022-12-14T16:11:12.501Z,20.38
2022-12-14T16:12:27.322Z,18.60
2022-12-14T16:15:29.175Z,19.30
2022-12-14T16:16:38.316Z,24.15
2022-12-14T16:17:48.292Z,19.17
2022-12-14T16:19:20.377Z,18.55
2022-12-14T16:20:19.055Z,18.17
2022-12-14T16:23:07.296Z,18.58
2022-12-14T16:26:05.441Z,17.87
2022-12-14T16:28:36.402Z,17.52
2022-12-14T16:31:14.288Z,19.73
2022-12-14T16:32:23.521Z,20.42
2022-12-14T16:33:37.090Z,20.35
2022-12-14T16:36:33.146Z,21.90
2022-12-14T16:37:42.657Z,21.63
2022-12-14T16:39:16.689Z,22.72
2022-12-14T16:40:38.337Z,24.05
2022-12-14T16:41:58.647Z,25.63
2022-12-14T16:43:26.432Z,25.00
2022-12-14T16:44:40.121Z,26.12
2022-12-14T16:46:07.708Z,26.03
2022-12-14T16:47:35.901Z,30.58
2022-12-14T16:48:50.079Z,30.80
2022-12-14T16:52:05.794Z,32.15
2022-12-14T16:57:07.040Z,25.65
2022-12-14T16:59:48.802Z,26.82
2022-12-14T17:01:03.260Z,25.86
2022-12-14T17:02:37.594Z,28.34
2022-12-14T17:05:19.145Z,28.77
2022-12-14T17:07:50.342Z,29.10
2022-12-14T17:09:00.096Z,29.28
2022-12-14T17:11:32.137Z,30.93
2022-12-14T17:12:48.636Z,32.25
2022-12-14T17:15:19.135Z,34.60
2022-12-14T17:16:28.735Z,33.97
2022-12-14T17:17:37.555Z,32.35
2022-12-14T17:20:11.954Z,28.95
2022-12-14T17:22:50.575Z,30.15
2022-12-14T17:24:03.784Z,31.10
2022-12-14T17:25:13.512Z,30.80
2022-12-14T17:27:41.480Z,31.97
2022-12-14T17:28:51.607Z,32.75
2022-12-14T17:30:01.866Z,33.30
2022-12-14T17:31:20.942Z,33.18
2022-12-14T17:32:31.665Z,32.90
2022-12-14T17:34:56.579Z,31.70
2022-12-14T17:36:08.213Z,32.83
2022-12-14T17:37:22.460Z,32.22
2022-12-14T17:39:47.799Z,31.43
2022-12-14T17:40:56.995Z,31.94
2022-12-14T17:42:06.405Z,31.17
2022-12-14T17:43:24.479Z,30.92
2022-12-14T17:44:33.654Z,28.78
2022-12-14T17:45:43.533Z,29.47
2022-12-14T17:46:52.806Z,30.55
2022-12-14T17:48:01.847Z,27.17
2022-12-14T17:49:15.175Z,27.57
2022-12-14T17:51:43.486Z,31.08
2022-12-14T17:52:52.835Z,27.45
2022-12-14T17:54:02.538Z,28.68
2022-12-14T17:55:23.297Z,27.25
2022-12-14T17:56:32.022Z,29.42
2022-12-14T17:57:41.695Z,27.35
2022-12-14T17:58:51.393Z,25.82
2022-12-14T18:00:19.355Z,26.35
2022-12-14T18:01:28.668Z,27.17
2022-12-14T18:02:41.461Z,28.08
2022-12-14T18:03:50.921Z,28.10
2022-12-14T18:04:59.670Z,27.20
2022-12-14T18:06:12.339Z,28.30
